Time;durP1;ratioP1;P1;durP2;ratioP2;P2;SDS_P1;SDS_P2;PMS_P1;PMS_P2;Temp;Humidity;BMP_temperature;BMP_pressure;BME280_temperature;BME280_humidity;BME280_pressure;Samples;Min_cycle;Max_cycle;Signal;HPM_P1;HPM_P2
2023/07/01 00:02:14;;;;;;;3.30;1.33;;;18.10;99.90;;;;;;5134702;27;20075;-52
2023/07/01 00:04:42;;;;;;;3.25;0.82;;;18.10;99.90;;;;;;5134804;27;20047;-54
2023/07/01 00:07:08;;;;;;;2.47;0.70;;;18.10;99.90;;;;;;5134495;27;20058;-53
2023/07/01 00:09:34;;;;;;;3.58;0.70;;;18.10;99.90;;;;;;5134719;27;20035;-52
2023/07/01 00:11:59;;;;;;;3.28;1.08;;;18.00;99.90;;;;;;5135200;27;20127;-53
2023/07/01 00:14:25;;;;;;;4.57;1.55;;;18.10;99.90;;;;;;5134625;28;20384;-52
2023/07/01 00:16:51;;;;;;;3.88;0.88;;;18.00;99.90;;;;;;5134523;28;20046;-53
2023/07/01 00:19:17;;;;;;;2.15;0.90;;;18.00;99.90;;;;;;5134272;28;20039;-52
2023/07/01 00:21:43;;;;;;;3.33;0.80;;;18.00;99.90;;;;;;5134398;28;20047;-53
2023/07/01 00:24:09;;;;;;;3.65;0.85;;;18.00;99.90;;;;;;5116468;28;20047;-53
2023/07/01 00:26:35;;;;;;;2.53;0.80;;;18.00;99.90;;;;;;5134530;28;20464;-52
2023/07/01 00:29:01;;;;;;;3.83;1.08;;;18.10;99.90;;;;;;5134389;28;20035;-51
2023/07/01 00:31:27;;;;;;;3.53;0.80;;;18.10;99.90;;;;;;5116097;28;20065;-52
2023/07/01 00:33:52;;;;;;;4.82;0.75;;;18.10;99.90;;;;;;5134368;28;20407;-50
2023/07/01 00:36:18;;;;;;;4.03;0.88;;;18.00;99.90;;;;;;5134180;28;20369;-49
2023/07/01 00:38:44;;;;;;;4.70;0.90;;;18.10;99.90;;;;;;5134960;28;20047;-48
2023/07/01 00:41:09;;;;;;;3.42;0.85;;;18.10;99.90;;;;;;5134212;28;20051;-51
2023/07/01 00:43:35;;;;;;;4.80;1.08;;;18.10;99.90;;;;;;5116197;28;20051;-52
2023/07/01 00:46:00;;;;;;;3.63;0.98;;;18.10;99.90;;;;;;5134257;28;20570;-52
2023/07/01 00:48:28;;;;;;;2.45;0.90;;;18.10;99.90;;;;;;5134304;28;20099;-49
2023/07/01 00:50:55;;;;;;;3.22;0.90;;;18.00;99.90;;;;;;5134126;28;20051;-53
2023/07/01 00:53:21;;;;;;;4.25;0.95;;;18.10;99.90;;;;;;5134531;28;20407;-52
2023/07/01 00:55:47;;;;;;;2.85;0.90;;;18.10;99.90;;;;;;5134210;28;20047;-49
2023/07/01 00:58:14;;;;;;;3.20;0.85;;;18.00;99.90;;;;;;5115949;28;20039;-52
2023/07/01 01:00:39;;;;;;;;;;;18.00;99.90;;;;;;5134527;28;20498;-51
2023/07/01 01:03:21;;;;;;;3.83;0.90;;;18.00;99.90;;;;;;5133991;28;19919;-52
2023/07/01 01:06:00;;;;;;;3.00;0.90;;;18.00;99.90;;;;;;5118611;27;20043;-51
2023/07/01 01:08:59;;;;;;;2.90;0.68;;;18.00;99.90;;;;;;5119753;27;20043;-50
2023/07/01 01:11:28;;;;;;;5.18;1.05;;;18.00;99.90;;;;;;5130601;27;20133;-50
2023/07/01 01:13:59;;;;;;;4.50;1.25;;;18.00;99.90;;;;;;5137625;27;20113;-50
2023/07/01 01:16:26;;;;;;;3.17;0.95;;;18.00;99.90;;;;;;5137943;27;20395;-52
2023/07/01 01:18:53;;;;;;;2.92;1.23;;;18.00;99.90;;;;;;5137828;27;20130;-49
2023/07/01 01:21:20;;;;;;;3.33;0.77;;;18.00;99.90;;;;;;5137717;27;20057;-50
2023/07/01 01:23:55;;;;;;;2.97;0.80;;;18.00;99.90;;;;;;5137635;27;20084;-51
2023/07/01 01:26:26;;;;;;;3.95;0.80;;;18.00;99.90;;;;;;5119325;27;20039;-49
2023/07/01 01:28:52;;;;;;;5.03;1.02;;;17.90;99.90;;;;;;5138102;27;20043;-51
2023/07/01 01:31:19;;;;;;;;;;;18.00;99.90;;;;;;5120357;27;20051;-50
2023/07/01 01:33:46;;;;;;;2.28;0.65;;;18.00;99.90;;;;;;5137501;27;20004;-52
2023/07/01 01:36:40;;;;;;;2.08;0.90;;;18.00;99.90;;;;;;5137512;27;20126;-52
2023/07/01 01:39:08;;;;;;;2.33;0.88;;;17.90;99.90;;;;;;5119486;27;20047;-52
2023/07/01 01:41:49;;;;;;;1.70;0.70;;;17.90;99.90;;;;;;5137339;27;20043;-52
2023/07/01 01:44:25;;;;;;;4.28;0.88;;;17.90;99.90;;;;;;5119651;27;20043;-49
2023/07/01 01:46:51;;;;;;;2.70;0.80;;;17.80;99.90;;;;;;5137183;27;20510;-48
2023/07/01 01:49:18;;;;;;;;;;;17.90;99.90;;;;;;5119333;27;20055;-53
2023/07/01 01:51:44;;;;;;;4.85;1.17;;;17.80;99.90;;;;;;5136976;27;20014;-53
2023/07/01 01:54:11;;;;;;;3.60;1.05;;;17.70;99.90;;;;;;5136943;27;20141;-53
2023/07/01 01:56:37;;;;;;;2.65;1.10;;;17.70;99.90;;;;;;5137119;27;20112;-53
2023/07/01 01:59:03;;;;;;;3.00;0.90;;;17.60;99.90;;;;;;5118533;27;20042;-51
2023/07/01 02:01:29;;;;;;;3.45;0.90;;;17.50;99.90;;;;;;5136937;27;20475;-51
2023/07/01 02:03:55;;;;;;;4.43;1.45;;;17.40;99.90;;;;;;5136874;27;20092;-49
2023/07/01 02:06:21;;;;;;;;;;;17.30;99.90;;;;;;5137852;27;20081;-53
2023/07/01 02:08:47;;;;;;;3.28;1.00;;;17.30;99.90;;;;;;5136835;27;19927;-49
2023/07/01 02:11:12;;;;;;;3.50;1.10;;;17.20;99.90;;;;;;5136800;27;20039;-50
2023/07/01 02:13:38;;;;;;;3.50;1.15;;;17.20;99.90;;;;;;5118387;27;20126;-53
2023/07/01 02:16:04;;;;;;;2.97;1.20;;;17.10;99.90;;;;;;5117551;27;20039;-50
2023/07/01 02:18:30;;;;;;;7.13;1.38;;;17.00;99.90;;;;;;5136450;27;20395;-52
2023/07/01 02:20:56;;;;;;;3.30;1.30;;;17.00;99.90;;;;;;5136624;27;20047;-53
2023/07/01 02:23:21;;;;;;;4.80;1.30;;;16.90;99.90;;;;;;5136533;27;20078;-51
2023/07/01 02:25:47;;;;;;;3.17;1.38;;;16.90;99.90;;;;;;5136537;27;20140;-50
2023/07/01 02:28:13;;;;;;;4.13;1.27;;;16.80;99.90;;;;;;5136397;27;20084;-49
2023/07/01 02:30:39;;;;;;;3.33;1.25;;;16.80;99.90;;;;;;5136252;27;20035;-49
2023/07/01 02:33:05;;;;;;;3.08;1.38;;;16.80;99.90;;;;;;5136180;27;20042;-51
2023/07/01 02:35:30;;;;;;;3.78;1.30;;;16.80;99.90;;;;;;5136194;27;20042;-50
2023/07/01 02:37:56;;;;;;;3.60;1.23;;;16.80;99.90;;;;;;5117895;27;20047;-52
2023/07/01 02:40:22;;;;;;;4.13;1.30;;;16.80;99.90;;;;;;5136039;27;20035;-50
2023/07/01 02:42:47;;;;;;;6.13;1.60;;;16.80;99.90;;;;;;5117871;27;20047;-50
2023/07/01 02:45:13;;;;;;;4.85;1.25;;;16.80;99.90;;;;;;5135921;27;20423;-51
2023/07/01 02:47:39;;;;;;;5.80;1.70;;;16.80;99.90;;;;;;5135760;27;20047;-51
2023/07/01 02:50:05;;;;;;;4.28;1.40;;;16.80;99.90;;;;;;5117364;27;20053;-49
2023/07/01 02:52:31;;;;;;;;;;;16.80;99.90;;;;;;5118858;27;20051;-50
2023/07/01 02:54:56;;;;;;;5.82;1.95;;;16.80;99.90;;;;;;5135921;27;19926;-49
2023/07/01 02:57:22;;;;;;;6.07;2.07;;;16.80;99.90;;;;;;5135849;27;20079;-51
2023/07/01 02:59:51;;;;;;;3.80;1.70;;;16.80;99.90;;;;;;5135703;27;20289;-49
2023/07/01 03:02:17;;;;;;;5.63;1.83;;;16.80;99.90;;;;;;5117649;27;20046;-52
2023/07/01 03:04:42;;;;;;;3.40;1.60;;;16.80;99.90;;;;;;5135686;27;20039;-52
2023/07/01 03:07:08;;;;;;;3.88;1.80;;;16.90;99.90;;;;;;5135699;27;20039;-48
2023/07/01 03:09:34;;;;;;;4.72;1.48;;;16.90;99.90;;;;;;5135686;27;20395;-51
2023/07/01 03:11:59;;;;;;;4.72;1.85;;;16.90;99.90;;;;;;5135439;27;20043;-52
2023/07/01 03:14:25;;;;;;;5.82;1.90;;;16.90;99.90;;;;;;5135506;27;20050;-50
2023/07/01 03:16:52;;;;;;;7.82;1.95;;;16.90;99.90;;;;;;5135256;27;20430;-48
2023/07/01 03:19:18;;;;;;;4.18;1.63;;;17.00;99.90;;;;;;5135342;27;20130;-50
2023/07/01 03:21:45;;;;;;;4.82;2.10;;;16.90;99.90;;;;;;5135362;27;20130;-48
2023/07/01 03:24:11;;;;;;;3.97;2.10;;;17.00;99.90;;;;;;5135555;27;20072;-48
2023/07/01 03:26:36;;;;;;;6.75;2.60;;;17.00;99.90;;;;;;5135206;27;20475;-48
2023/07/01 03:29:02;;;;;;;4.97;2.28;;;17.00;99.90;;;;;;5135114;27;20069;-52
2023/07/01 03:31:28;;;;;;;5.65;2.60;;;17.00;99.90;;;;;;5135045;27;20050;-48
2023/07/01 03:33:54;;;;;;;6.60;2.47;;;16.90;99.90;;;;;;5116635;27;20034;-50
2023/07/01 03:36:19;;;;;;;5.60;2.70;;;16.90;99.90;;;;;;5117167;27;20133;-51
2023/07/01 03:38:46;;;;;;;5.05;2.28;;;16.90;99.90;;;;;;5134927;27;20045;-49
2023/07/01 03:41:11;;;;;;;5.35;2.33;;;16.80;99.90;;;;;;5135363;27;20434;-49
2023/07/01 03:43:37;;;;;;;6.07;2.65;;;16.80;99.90;;;;;;5135039;27;20112;-48
2023/07/01 03:46:03;;;;;;;4.40;2.40;;;16.70;99.90;;;;;;5134968;27;20399;-48
2023/07/01 03:48:29;;;;;;;4.70;2.60;;;16.70;99.90;;;;;;5134978;27;20478;-48
2023/07/01 03:50:55;;;;;;;6.32;2.88;;;16.70;99.90;;;;;;5134573;27;20059;-51
2023/07/01 03:53:20;;;;;;;5.10;2.40;;;16.70;99.90;;;;;;5134919;27;20086;-50
2023/07/01 03:55:47;;;;;;;3.97;2.15;;;16.60;99.90;;;;;;5135056;27;20039;-50
2023/07/01 03:58:21;;;;;;;4.25;2.17;;;16.60;99.90;;;;;;5134709;27;20078;-50
2023/07/01 04:00:48;;;;;;;4.72;2.20;;;16.60;99.90;;;;;;5134485;27;20049;-52
2023/07/01 04:03:13;;;;;;;4.20;1.98;;;16.70;99.90;;;;;;5134753;27;20058;-49
2023/07/01 04:05:39;;;;;;;4.57;2.13;;;16.60;99.90;;;;;;5116344;27;20051;-50
2023/07/01 04:08:05;;;;;;;4.88;2.38;;;16.60;99.90;;;;;;5134538;27;20091;-49
2023/07/01 04:10:31;;;;;;;5.68;2.30;;;16.60;99.90;;;;;;5116430;28;20050;-49
2023/07/01 04:12:58;;;;;;;4.40;2.20;;;16.60;99.90;;;;;;5116324;28;20498;-49
2023/07/01 04:15:24;;;;;;;5.10;2.00;;;16.60;99.90;;;;;;5134362;28;20062;-49
2023/07/01 04:17:50;;;;;;;;;;;16.60;99.90;;;;;;5135067;28;20054;-49
2023/07/01 04:20:15;;;;;;;4.97;2.47;;;16.60;99.90;;;;;;5116249;28;19923;-50
2023/07/01 04:22:42;;;;;;;4.87;2.23;;;16.60;99.90;;;;;;5134562;28;20126;-52
2023/07/01 04:25:08;;;;;;;5.20;2.15;;;16.60;99.90;;;;;;5134388;28;20319;-51
2023/07/01 04:27:34;;;;;;;;;;;16.60;99.90;;;;;;5134827;28;20050;-49
2023/07/01 04:30:00;;;;;;;5.40;2.10;;;16.60;99.90;;;;;;5134177;28;19919;-49
2023/07/01 04:32:28;;;;;;;5.93;2.00;;;16.70;99.90;;;;;;5134428;28;20043;-48
2023/07/01 04:34:54;;;;;;;4.03;1.90;;;16.70;99.90;;;;;;5134122;28;20549;-49
2023/07/01 04:37:20;;;;;;;4.60;1.85;;;16.70;99.90;;;;;;5134348;28;20088;-49
2023/07/01 04:39:46;;;;;;;3.88;2.00;;;16.70;99.90;;;;;;5135755;27;20039;-48
2023/07/01 04:42:11;;;;;;;5.05;1.88;;;16.70;99.90;;;;;;5138464;27;20049;-52
2023/07/01 04:44:37;;;;;;;4.25;1.90;;;16.70;99.90;;;;;;5138137;27;20399;-52
2023/07/01 04:47:03;;;;;;;4.77;1.93;;;16.70;99.90;;;;;;5120105;27;20126;-50
2023/07/01 04:49:28;;;;;;;3.85;1.70;;;16.70;99.90;;;;;;5138441;27;20265;-49
2023/07/01 04:51:56;;;;;;;3.43;1.53;;;16.70;99.90;;;;;;5119929;27;20074;-52
2023/07/01 04:54:22;;;;;;;4.90;1.90;;;16.70;99.90;;;;;;5138191;27;20280;-48
2023/07/01 04:56:47;;;;;;;4.15;1.90;;;16.70;99.90;;;;;;5102972;27;20050;-51
2023/07/01 04:59:13;;;;;;;5.50;1.80;;;16.70;99.90;;;;;;5138002;27;20039;-51
2023/07/01 05:01:39;;;;;;;4.70;1.80;;;16.70;99.90;;;;;;5138115;27;20490;-48
2023/07/01 05:04:05;;;;;;;6.03;2.08;;;16.70;99.90;;;;;;5138089;27;20050;-51
2023/07/01 05:06:31;;;;;;;5.10;2.30;;;16.80;99.90;;;;;;5138442;27;20043;-49
2023/07/01 05:08:57;;;;;;;;;;;16.80;99.90;;;;;;5120327;27;20051;-52
2023/07/01 05:11:23;;;;;;;5.18;2.10;;;16.80;99.90;;;;;;5138049;27;19919;-49
2023/07/01 05:13:48;;;;;;;5.07;2.22;;;16.80;99.90;;;;;;5119767;27;20081;-52
2023/07/01 05:16:14;;;;;;;4.33;2.30;;;16.80;99.90;;;;;;5138053;27;20043;-49
2023/07/01 05:18:40;;;;;;;7.07;2.35;;;16.80;99.90;;;;;;5119429;27;20288;-50
2023/07/01 05:21:05;;;;;;;5.20;2.43;;;16.80;99.90;;;;;;5137799;27;20047;-48
2023/07/01 05:23:31;;;;;;;9.53;3.00;;;16.90;99.90;;;;;;5137776;27;20276;-48
2023/07/01 05:25:57;;;;;;;4.95;2.65;;;16.90;99.90;;;;;;5137564;27;20096;-49
2023/07/01 05:28:22;;;;;;;4.60;2.25;;;16.90;99.90;;;;;;5119241;27;20077;-48
2023/07/01 05:30:50;;;;;;;4.60;2.78;;;16.90;99.90;;;;;;5137566;27;20503;-49
2023/07/01 05:33:16;;;;;;;4.78;2.30;;;17.00;99.90;;;;;;5137603;27;20047;-48
2023/07/01 05:35:41;;;;;;;5.15;2.72;;;16.90;99.90;;;;;;5137492;27;20053;-48
2023/07/01 05:38:12;;;;;;;3.65;1.88;;;16.90;99.90;;;;;;5137400;27;20043;-48
2023/07/01 05:40:38;;;;;;;5.15;2.30;;;17.00;99.90;;;;;;5137176;27;20146;-49
2023/07/01 05:43:04;;;;;;;6.03;2.40;;;17.00;99.90;;;;;;5137153;27;20573;-48
2023/07/01 05:45:30;;;;;;;4.25;2.25;;;17.00;99.90;;;;;;5137557;27;20101;-48
2023/07/01 05:47:56;;;;;;;6.88;2.60;;;17.00;99.90;;;;;;5137298;27;20107;-48
2023/07/01 05:50:22;;;;;;;6.53;2.60;;;17.00;99.90;;;;;;5136384;27;20043;-48
2023/07/01 05:52:47;;;;;;;4.45;2.10;;;17.00;99.90;;;;;;5136251;27;20047;-49
2023/07/01 05:55:13;;;;;;;5.90;2.33;;;17.00;99.90;;;;;;5136956;27;20043;-48
2023/07/01 05:57:39;;;;;;;3.95;2.05;;;17.00;99.90;;;;;;5136912;27;20126;-48
2023/07/01 06:00:06;;;;;;;4.88;2.47;;;17.10;99.90;;;;;;5136964;27;20088;-48
2023/07/01 06:02:32;;;;;;;4.47;2.13;;;17.10;99.90;;;;;;5136960;27;20046;-48
2023/07/01 06:04:58;;;;;;;6.00;2.28;;;17.10;99.90;;;;;;5136904;27;20054;-52
2023/07/01 06:07:23;;;;;;;6.53;2.75;;;17.10;99.90;;;;;;5136906;27;20071;-48
2023/07/01 06:09:49;;;;;;;5.85;2.60;;;17.10;99.90;;;;;;5136870;27;20043;-47
2023/07/01 06:12:15;;;;;;;6.32;2.65;;;17.10;99.90;;;;;;5136724;27;20039;-50
2023/07/01 06:14:42;;;;;;;4.05;2.28;;;17.10;99.90;;;;;;5136732;27;20054;-47
2023/07/01 06:17:07;;;;;;;;;;;17.10;99.90;;;;;;5137090;27;20058;-48
2023/07/01 06:19:33;;;;;;;5.90;2.60;;;17.10;99.90;;;;;;5136444;27;19919;-50
2023/07/01 06:21:59;;;;;;;5.72;2.72;;;17.10;99.90;;;;;;5136591;27;20039;-48
2023/07/01 06:24:24;;;;;;;5.53;2.65;;;17.10;99.90;;;;;;5136554;27;20095;-50
2023/07/01 06:26:50;;;;;;;6.35;3.22;;;17.10;99.90;;;;;;5117949;27;20043;-49
2023/07/01 06:29:16;;;;;;;4.47;2.53;;;17.10;99.90;;;;;;5136427;27;20043;-48
2023/07/01 06:31:42;;;;;;;6.70;2.70;;;17.10;99.90;;;;;;5136383;27;20281;-48
2023/07/01 06:34:12;;;;;;;4.80;2.65;;;17.10;99.90;;;;;;5101338;27;20089;-50
2023/07/01 06:36:38;;;;;;;8.02;3.50;;;17.00;99.90;;;;;;5136476;27;20066;-48
2023/07/01 06:39:04;;;;;;;7.40;3.22;;;17.00;99.90;;;;;;5136185;27;20472;-48
2023/07/01 06:41:30;;;;;;;6.20;3.30;;;16.90;99.90;;;;;;5135853;27;20495;-49
2023/07/01 06:43:56;;;;;;;6.43;2.60;;;16.90;99.90;;;;;;5136047;27;20104;-48
2023/07/01 06:46:21;;;;;;;8.63;2.90;;;16.90;99.90;;;;;;5136224;27;20047;-51
2023/07/01 06:48:47;;;;;;;6.07;3.00;;;16.90;99.90;;;;;;5136007;27;20044;-49
2023/07/01 06:51:14;;;;;;;5.27;2.73;;;16.90;99.90;;;;;;5135910;27;20062;-50
2023/07/01 06:53:40;;;;;;;5.70;3.17;;;16.80;99.90;;;;;;5135911;27;20710;-48
2023/07/01 06:56:06;;;;;;;9.95;3.25;;;16.80;99.90;;;;;;5135721;27;20073;-49
2023/07/01 06:58:32;;;;;;;6.82;3.10;;;16.90;99.90;;;;;;5117585;27;20121;-48
2023/07/01 07:00:57;;;;;;;4.70;2.90;;;16.90;99.90;;;;;;5135844;27;20146;-49
2023/07/01 07:03:23;;;;;;;6.22;2.83;;;16.90;99.90;;;;;;5116946;27;20050;-48
2023/07/01 07:05:52;;;;;;;5.63;2.92;;;16.90;99.90;;;;;;5135742;27;20070;-49
2023/07/01 07:08:17;;;;;;;5.22;2.85;;;16.90;99.90;;;;;;5117224;27;20051;-49
2023/07/01 07:10:43;;;;;;;4.65;2.85;;;16.90;99.90;;;;;;5135419;27;20091;-48
2023/07/01 07:13:09;;;;;;;5.38;2.65;;;16.90;99.90;;;;;;5117542;27;20049;-48
2023/07/01 07:15:35;;;;;;;;;;;16.90;99.90;;;;;;5117900;27;20043;-48
2023/07/01 07:18:01;;;;;;;5.90;2.60;;;16.90;99.90;;;;;;5135485;27;19927;-49
2023/07/01 07:20:27;;;;;;;5.07;2.78;;;16.90;99.90;;;;;;5100057;27;20038;-48
2023/07/01 07:22:52;;;;;;;7.30;3.70;;;16.90;99.90;;;;;;5100275;27;20043;-48
2023/07/01 07:25:18;;;;;;;4.88;2.80;;;16.90;99.90;;;;;;5116881;27;20525;-51
2023/07/01 07:27:45;;;;;;;5.45;2.90;;;16.90;99.90;;;;;;5135349;27;20053;-48
2023/07/01 07:30:11;;;;;;;;;;;16.90;99.90;;;;;;5135672;27;20046;-49
2023/07/01 07:32:37;;;;;;;4.32;2.53;;;16.90;99.90;;;;;;5135225;27;19957;-48
2023/07/01 07:35:02;;;;;;;4.88;2.65;;;16.90;99.90;;;;;;5117194;27;20043;-48
2023/07/01 07:37:28;;;;;;;4.70;2.50;;;16.90;99.90;;;;;;5134838;27;20095;-49
2023/07/01 07:39:55;;;;;;;4.50;2.42;;;16.90;99.90;;;;;;5134865;27;20039;-49
2023/07/01 07:42:21;;;;;;;5.63;2.70;;;17.00;99.90;;;;;;5135027;27;20074;-48
2023/07/01 07:44:47;;;;;;;4.13;2.35;;;17.00;99.90;;;;;;5116834;27;20093;-48
2023/07/01 07:47:14;;;;;;;4.50;2.53;;;17.00;99.90;;;;;;5116574;27;20130;-48
2023/07/01 07:49:39;;;;;;;;;;;17.00;99.90;;;;;;5135218;27;20443;-52
2023/07/01 07:52:05;;;;;;;5.20;2.30;;;17.00;99.90;;;;;;5134470;27;19965;-49
2023/07/01 07:54:32;;;;;;;4.45;2.13;;;17.00;99.90;;;;;;5134787;27;20043;-53
2023/07/01 07:56:59;;;;;;;5.00;2.35;;;17.00;99.90;;;;;;5116459;27;20540;-52
2023/07/01 07:59:28;;;;;;;4.45;2.30;;;17.10;99.90;;;;;;5134655;27;20124;-53
2023/07/01 08:01:57;;;;;;;3.58;1.98;;;17.10;99.90;;;;;;5134664;27;20058;-53
2023/07/01 08:04:23;;;;;;;4.63;2.25;;;17.10;99.90;;;;;;5134692;27;20043;-52
2023/07/01 08:06:49;;;;;;;4.38;2.10;;;17.20;99.90;;;;;;5134543;27;20495;-52
2023/07/01 08:09:15;;;;;;;4.22;2.35;;;17.20;99.90;;;;;;5134688;27;20046;-50
2023/07/01 08:11:41;;;;;;;4.18;2.50;;;17.20;99.90;;;;;;5134600;27;20078;-49
2023/07/01 08:14:07;;;;;;;3.70;1.95;;;17.30;99.90;;;;;;5115521;28;20530;-53
2023/07/01 08:16:32;;;;;;;4.03;1.90;;;17.30;99.90;;;;;;5134612;27;20043;-49
2023/07/01 08:18:58;;;;;;;4.57;2.10;;;17.30;99.90;;;;;;5134556;28;20043;-51
2023/07/01 08:21:24;;;;;;;4.38;2.05;;;17.30;99.90;;;;;;5134330;28;20083;-54
2023/07/01 08:23:49;;;;;;;4.57;2.08;;;17.30;99.90;;;;;;5116754;28;20031;-50
2023/07/01 08:26:15;;;;;;;4.28;1.80;;;17.30;99.90;;;;;;5134710;28;20129;-51
2023/07/01 08:28:41;;;;;;;3.72;1.88;;;17.40;99.90;;;;;;5134856;28;20043;-49
2023/07/01 08:31:07;;;;;;;4.20;2.00;;;17.40;99.90;;;;;;5134507;28;20135;-49
2023/07/01 08:33:33;;;;;;;4.45;2.00;;;17.40;99.90;;;;;;5134384;28;20047;-50
2023/07/01 08:35:59;;;;;;;3.30;1.92;;;17.40;99.90;;;;;;5115999;28;20050;-49
2023/07/01 08:38:25;;;;;;;3.55;1.65;;;17.40;99.90;;;;;;5134218;28;20039;-48
2023/07/01 08:40:52;;;;;;;;;;;17.40;99.90;;;;;;5116489;28;20035;-50
2023/07/01 08:43:22;;;;;;;3.45;1.88;;;17.40;99.90;;;;;;5134290;28;20359;-48
2023/07/01 08:45:51;;;;;;;4.15;2.17;;;17.40;99.90;;;;;;5115988;28;20047;-49
2023/07/01 08:48:21;;;;;;;4.22;2.00;;;17.40;99.90;;;;;;5134129;28;20047;-48
2023/07/01 08:51:12;;;;;;;4.43;2.05;;;17.50;99.90;;;;;;5133724;28;20556;-49
2023/07/01 08:53:38;;;;;;;3.45;1.55;;;17.50;99.90;;;;;;5115901;28;20105;-50
2023/07/01 08:56:06;;;;;;;3.72;1.90;;;17.50;99.90;;;;;;5134422;28;20051;-51
2023/07/01 08:58:32;;;;;;;3.90;1.90;;;17.50;99.90;;;;;;5134391;28;20035;-48
2023/07/01 09:00:58;;;;;;;3.95;2.08;;;17.60;99.90;;;;;;5134009;28;20043;-49
2023/07/01 09:03:28;;;;;;;4.00;1.95;;;17.60;99.90;;;;;;5133852;28;20067;-47
2023/07/01 09:05:54;;;;;;;3.78;1.73;;;17.70;99.90;;;;;;5134218;28;20078;-47
2023/07/01 09:08:20;;;;;;;4.25;2.00;;;17.80;99.90;;;;;;5134296;28;20483;-48
2023/07/01 09:10:46;;;;;;;3.63;1.60;;;17.80;99.90;;;;;;5115903;28;20065;-48
2023/07/01 09:13:12;;;;;;;3.70;2.10;;;17.80;99.90;;;;;;5115689;28;20130;-48
2023/07/01 09:15:48;;;;;;;4.25;1.80;;;17.80;99.90;;;;;;5133859;28;20043;-48
2023/07/01 09:18:21;;;;;;;3.83;1.80;;;17.80;99.90;;;;;;5115764;28;20050;-50
2023/07/01 09:20:48;;;;;;;3.50;1.60;;;17.80;99.90;;;;;;5133735;28;20498;-46
2023/07/01 09:23:31;;;;;;;2.88;1.35;;;17.80;99.90;;;;;;5133887;28;20404;-48
2023/07/01 09:26:14;;;;;;;3.28;1.50;;;17.80;99.90;;;;;;5135538;27;20488;-52
2023/07/01 09:28:42;;;;;;;3.15;1.58;;;17.80;99.90;;;;;;5137920;27;20046;-50
2023/07/01 09:31:09;;;;;;;2.88;1.30;;;17.80;99.90;;;;;;5119429;27;20116;-50
2023/07/01 09:33:36;;;;;;;3.28;1.48;;;17.90;99.90;;;;;;5137602;27;20046;-49
2023/07/01 09:36:02;;;;;;;3.00;1.35;;;17.90;99.90;;;;;;5137526;27;20047;-48
2023/07/01 09:38:28;;;;;;;;;;;17.90;99.90;;;;;;5137643;27;20054;-48
2023/07/01 09:40:54;;;;;;;3.08;1.40;;;18.00;99.90;;;;;;5137439;27;20291;-49
2023/07/01 09:43:19;;;;;;;3.13;1.48;;;18.00;99.90;;;;;;5137343;27;20383;-51
2023/07/01 09:45:53;;;;;;;3.50;1.42;;;18.00;99.90;;;;;;5137116;27;20043;-50
2023/07/01 09:48:21;;;;;;;2.92;1.33;;;18.00;99.90;;;;;;5119310;27;20043;-52
2023/07/01 09:50:48;;;;;;;2.88;1.20;;;18.00;99.90;;;;;;5137181;27;20055;-53
2023/07/01 09:53:20;;;;;;;2.50;1.02;;;18.00;99.90;;;;;;5137118;27;20062;-48
2023/07/01 09:55:47;;;;;;;2.92;1.45;;;18.00;99.90;;;;;;5102368;27;20043;-49
2023/07/01 09:58:13;;;;;;;3.17;1.20;;;18.00;99.90;;;;;;5136958;27;20080;-53
2023/07/01 10:00:39;;;;;;;2.63;1.30;;;18.10;99.90;;;;;;5136885;27;20047;-53
2023/07/01 10:03:07;;;;;;;;;;;18.00;99.90;;;;;;5137407;27;20054;-55
2023/07/01 10:05:33;;;;;;;2.33;0.93;;;18.10;99.90;;;;;;5136948;27;20279;-48
2023/07/01 10:07:59;;;;;;;2.92;1.20;;;18.00;99.90;;;;;;5136541;27;20499;-53
2023/07/01 10:10:25;;;;;;;3.35;1.17;;;18.00;99.90;;;;;;5136826;27;20035;-52
2023/07/01 10:12:52;;;;;;;2.58;1.10;;;18.10;99.90;;;;;;5136695;27;20054;-54
2023/07/01 10:15:26;;;;;;;4.15;1.00;;;18.10;99.90;;;;;;5136840;27;20043;-54
2023/07/01 10:17:54;;;;;;;3.50;0.90;;;18.10;99.90;;;;;;5136756;27;20051;-55
2023/07/01 10:20:34;;;;;;;2.83;0.80;;;18.10;99.90;;;;;;5136299;27;20040;-54
2023/07/01 10:23:01;;;;;;;2.80;0.70;;;18.10;99.90;;;;;;5136806;27;20095;-53
2023/07/01 10:25:35;;;;;;;1.45;0.60;;;18.20;99.90;;;;;;5136540;27;20062;-55
2023/07/01 10:28:01;;;;;;;3.33;0.82;;;18.20;99.90;;;;;;5136544;27;20130;-54
2023/07/01 10:30:47;;;;;;;1.38;0.55;;;18.20;99.90;;;;;;5136399;27;20128;-54
2023/07/01 10:33:29;;;;;;;1.80;0.70;;;18.20;99.90;;;;;;5136299;27;20043;-55
2023/07/01 10:36:12;;;;;;;2.03;0.90;;;18.20;99.90;;;;;;5136313;27;20046;-54
2023/07/01 10:38:39;;;;;;;2.05;0.95;;;18.30;99.90;;;;;;5135623;27;20047;-54
2023/07/01 10:41:05;;;;;;;;;;;18.30;99.90;;;;;;5136302;27;20043;-53
2023/07/01 10:43:38;;;;;;;2.97;1.38;;;18.30;99.90;;;;;;5135842;27;19919;-52
2023/07/01 10:46:19;;;;;;;3.40;1.30;;;18.40;99.90;;;;;;5135926;27;20122;-48
2023/07/01 10:49:05;;;;;;;3.33;1.30;;;18.50;99.90;;;;;;5136078;27;20444;-52
2023/07/01 10:51:52;;;;;;;3.55;1.40;;;18.50;99.90;;;;;;5117427;27;20063;-47
2023/07/01 10:54:31;;;;;;;4.35;1.65;;;18.50;99.90;;;;;;5136106;27;20527;-54
2023/07/01 10:57:13;;;;;;;3.63;1.48;;;18.50;99.90;;;;;;5135905;27;20046;-49
2023/07/01 10:59:39;;;;;;;4.03;1.50;;;18.50;99.90;;;;;;5135817;27;20068;-49
2023/07/01 11:02:07;;;;;;;5.00;1.67;;;18.50;99.90;;;;;;5135762;27;20042;-53
2023/07/01 11:04:54;;;;;;;4.32;1.83;;;18.40;99.90;;;;;;5136496;27;20048;-52
2023/07/01 11:07:24;;;;;;;4.40;1.80;;;18.40;99.90;;;;;;5135955;27;20051;-54
2023/07/01 11:09:51;;;;;;;4.50;2.08;;;18.40;99.90;;;;;;5135928;27;20092;-51
2023/07/01 11:12:17;;;;;;;5.32;2.08;;;18.40;99.90;;;;;;5117311;27;20130;-51
2023/07/01 11:14:43;;;;;;;4.55;2.10;;;18.40;99.90;;;;;;5135578;27;20563;-48
2023/07/01 11:17:20;;;;;;;4.95;2.55;;;18.40;99.90;;;;;;5135559;27;20387;-53
2023/07/01 11:19:52;;;;;;;4.80;2.55;;;18.40;99.90;;;;;;5135308;27;20495;-50
2023/07/01 11:22:18;;;;;;;4.72;2.20;;;18.40;99.90;;;;;;5135554;27;20425;-50
2023/07/01 11:24:43;;;;;;;6.07;2.60;;;18.50;99.90;;;;;;5135434;27;20043;-54
2023/07/01 11:27:09;;;;;;;4.85;2.00;;;18.50;99.90;;;;;;5135263;27;20039;-53
2023/07/01 11:29:37;;;;;;;5.50;2.42;;;18.50;99.90;;;;;;5135215;27;20039;-51
2023/07/01 11:32:12;;;;;;;6.68;2.38;;;18.60;99.90;;;;;;5135189;27;20568;-47
2023/07/01 11:34:41;;;;;;;5.85;2.50;;;18.60;99.90;;;;;;5117378;27;20043;-52
2023/07/01 11:37:07;;;;;;;5.47;2.78;;;18.60;99.90;;;;;;5135131;27;20479;-52
2023/07/01 11:39:41;;;;;;;7.55;3.00;;;18.70;99.90;;;;;;5134945;27;20050;-50
2023/07/01 11:42:07;;;;;;;6.80;2.83;;;18.70;99.90;;;;;;5135490;27;20119;-52
2023/07/01 11:44:33;;;;;;;7.05;2.95;;;18.80;99.90;;;;;;5135040;27;20475;-48
2023/07/01 11:46:59;;;;;;;5.40;2.42;;;18.80;99.90;;;;;;5134981;27;20121;-54
2023/07/01 11:49:30;;;;;;;5.00;2.20;;;18.80;99.90;;;;;;5134894;27;20575;-47
2023/07/01 11:51:58;;;;;;;7.43;2.33;;;18.80;99.90;;;;;;5135035;27;20098;-52
2023/07/01 11:54:41;;;;;;;5.13;2.78;;;18.80;99.90;;;;;;5134852;27;20047;-54
2023/07/01 11:57:14;;;;;;;6.05;2.50;;;18.80;99.90;;;;;;5134942;27;20050;-52
2023/07/01 11:59:41;;;;;;;5.43;2.85;;;18.90;99.90;;;;;;5134691;27;20039;-55
2023/07/01 12:02:08;;;;;;;6.20;3.42;;;18.90;99.90;;;;;;5134618;27;20392;-53
2023/07/01 12:04:37;;;;;;;7.70;3.58;;;19.00;99.90;;;;;;5134609;27;20483;-54
2023/07/01 12:07:15;;;;;;;6.80;3.28;;;19.00;99.90;;;;;;5135101;27;20042;-51
2023/07/01 12:09:44;;;;;;;6.13;3.10;;;19.00;99.90;;;;;;5116536;27;20503;-49
2023/07/01 12:12:11;;;;;;;8.32;3.30;;;19.10;99.90;;;;;;5134732;27;20078;-52
2023/07/01 12:14:38;;;;;;;5.70;2.78;;;19.20;99.90;;;;;;5116575;28;20047;-49
2023/07/01 12:17:04;;;;;;;9.25;3.45;;;19.20;99.90;;;;;;5134413;27;20517;-54
2023/07/01 12:19:30;;;;;;;8.10;3.15;;;19.20;99.90;;;;;;5134504;28;20039;-48
2023/07/01 12:21:58;;;;;;;6.35;3.53;;;19.30;99.90;;;;;;5099523;28;20081;-51
2023/07/01 12:24:32;;;;;;;8.00;3.42;;;19.30;99.90;;;;;;5134497;28;20050;-53
2023/07/01 12:27:03;;;;;;;7.35;3.25;;;19.40;99.90;;;;;;5134429;28;20061;-54
2023/07/01 12:29:29;;;;;;;6.68;3.17;;;19.40;99.90;;;;;;5134423;28;20119;-50
2023/07/01 12:31:56;;;;;;;7.55;3.25;;;19.40;99.90;;;;;;5116222;28;20085;-49
2023/07/01 12:34:22;;;;;;;7.45;3.60;;;19.40;99.90;;;;;;5134418;28;20048;-49
2023/07/01 12:36:48;;;;;;;6.82;3.30;;;19.50;99.90;;;;;;5134850;28;20046;-49
2023/07/01 12:39:17;;;;;;;7.40;3.80;;;19.50;99.90;;;;;;5134359;28;20100;-52
2023/07/01 12:41:47;;;;;;;7.18;3.80;;;19.60;99.90;;;;;;5134241;28;20046;-48
2023/07/01 12:44:13;;;;;;;7.07;3.60;;;19.70;99.90;;;;;;5115905;28;20050;-49
2023/07/01 12:46:43;;;;;;;8.52;3.55;;;19.80;99.90;;;;;;5134304;28;20471;-48
2023/07/01 12:49:12;;;;;;;7.15;3.50;;;19.90;99.90;;;;;;5134065;28;20483;-49
2023/07/01 12:51:39;;;;;;;6.05;2.90;;;20.00;99.90;;;;;;5134390;27;20429;-53
2023/07/01 12:54:05;;;;;;;5.25;3.10;;;20.00;99.90;;;;;;5134334;28;20086;-54